createdAt,value
2023-04-27T11:12:27.111Z,646.88
2023-04-27T11:13:27.056Z,652.50
2023-04-27T11:14:26.997Z,658.13
2023-04-27T11:15:26.989Z,658.13
2023-04-27T11:16:27.000Z,641.25
2023-04-27T11:17:26.985Z,646.88
2023-04-27T11:18:26.955Z,669.38
2023-04-27T11:19:26.958Z,686.25
2023-04-27T11:20:26.944Z,680.63
2023-04-27T11:21:26.930Z,669.38
2023-04-27T11:22:26.915Z,680.63
2023-04-27T11:23:26.917Z,680.63
2023-04-27T11:24:26.884Z,697.50
2023-04-27T11:25:26.889Z,708.75
2023-04-27T11:26:26.860Z,697.50
2023-04-27T11:27:26.841Z,691.88
2023-04-27T11:28:26.849Z,697.50
2023-04-27T11:29:26.842Z,703.13
2023-04-27T11:30:26.836Z,725.63
2023-04-27T11:31:26.853Z,736.88
2023-04-27T11:32:26.884Z,736.88
2023-04-27T11:33:26.792Z,742.50
2023-04-27T11:34:26.788Z,742.50
2023-04-27T11:35:26.766Z,742.50
2023-04-27T11:36:26.753Z,748.13
2023-04-27T11:37:26.735Z,748.13
2023-04-27T11:38:26.813Z,753.75
2023-04-27T11:39:26.794Z,748.13
2023-04-27T11:40:26.723Z,753.75
2023-04-27T11:41:26.677Z,736.88
2023-04-27T11:42:26.692Z,725.63
2023-04-27T11:43:26.669Z,731.25
2023-04-27T11:44:26.691Z,742.50
2023-04-27T11:45:26.634Z,753.75
2023-04-27T11:46:26.693Z,748.13
2023-04-27T11:47:26.676Z,748.13
2023-04-27T11:48:26.610Z,776.25
2023-04-27T11:49:26.584Z,776.25
2023-04-27T11:50:26.608Z,781.88
2023-04-27T11:51:26.563Z,781.88
2023-04-27T11:52:26.578Z,810.00
2023-04-27T11:53:26.570Z,810.00
2023-04-27T11:54:26.534Z,787.50
2023-04-27T11:55:26.528Z,804.38
2023-04-27T11:56:26.534Z,804.38
2023-04-27T11:57:26.496Z,798.75
2023-04-27T11:58:26.489Z,793.13
2023-04-27T11:59:26.493Z,815.63
2023-04-27T12:00:26.485Z,815.63
2023-04-27T12:01:36.953Z,821.25
2023-04-27T12:02:26.549Z,838.13
2023-04-27T12:03:26.888Z,843.75
2023-04-27T12:04:26.582Z,849.38
2023-04-27T12:05:26.530Z,860.63
2023-04-27T12:06:32.617Z,860.63
2023-04-27T12:07:26.401Z,860.63
2023-04-27T12:08:26.376Z,855.00
2023-04-27T12:09:26.375Z,843.75
2023-04-27T12:10:26.366Z,849.38
2023-04-27T12:11:26.352Z,849.38
2023-04-27T12:12:26.348Z,855.00
2023-04-27T12:13:26.326Z,855.00
2023-04-27T12:14:26.333Z,855.00
2023-04-27T12:15:26.322Z,855.00
2023-04-27T12:16:26.320Z,871.88
2023-04-27T12:17:26.339Z,877.50
2023-04-27T12:18:26.297Z,883.13
2023-04-27T12:19:26.269Z,877.50
2023-04-27T12:20:26.252Z,888.75
2023-04-27T12:21:26.250Z,877.50
2023-04-27T12:22:26.226Z,894.38
2023-04-27T12:23:26.214Z,900.00
2023-04-27T12:24:26.198Z,922.50
2023-04-27T12:25:26.191Z,905.63
2023-04-27T12:26:26.179Z,905.63
2023-04-27T12:27:26.172Z,916.88
2023-04-27T12:28:26.171Z,916.88
2023-04-27T12:29:26.140Z,945.00
2023-04-27T12:30:26.146Z,945.00
2023-04-27T12:31:27.816Z,939.38
2023-04-27T12:32:26.169Z,911.25
2023-04-27T12:33:26.109Z,888.75
2023-04-27T12:34:26.085Z,894.38
2023-04-27T12:35:26.096Z,888.75
2023-04-27T12:36:26.085Z,894.38
2023-04-27T12:37:27.090Z,933.75
2023-04-27T12:38:26.036Z,956.25
2023-04-27T12:39:26.047Z,950.63
2023-04-27T12:40:26.025Z,978.75
2023-04-27T12:41:26.012Z,1018.13
2023-04-27T12:42:26.019Z,1029.38
2023-04-27T12:43:25.975Z,1029.38
2023-04-27T12:44:25.991Z,1040.63
2023-04-27T12:45:26.012Z,1074.38
2023-04-27T12:46:26.061Z,1063.13
2023-04-27T12:48:25.953Z,1057.50
2023-04-27T12:49:25.913Z,1074.38
2023-04-27T12:50:25.941Z,1085.63
2023-04-27T12:51:25.919Z,1119.38
2023-04-27T12:52:25.910Z,1108.13
2023-04-27T12:53:25.884Z,1080.00
2023-04-27T12:54:25.864Z,1096.88
2023-04-27T12:55:33.813Z,1085.63
2023-04-27T12:56:25.851Z,1130.63
2023-04-27T12:57:25.848Z,1085.63
2023-04-27T12:58:25.849Z,1029.38
2023-04-27T12:59:25.825Z,1068.75
2023-04-27T13:00:25.842Z,1023.75
2023-04-27T13:01:25.838Z,1018.13
2023-04-27T13:02:25.881Z,1029.38
2023-04-27T13:03:25.911Z,1018.13
2023-04-27T13:04:26.063Z,1029.38
2023-04-27T13:05:25.785Z,1051.88
2023-04-27T13:06:25.748Z,1130.63
2023-04-27T13:07:25.751Z,1170.00
2023-04-27T13:08:25.756Z,1175.63
2023-04-27T13:09:25.713Z,1040.63
2023-04-27T13:10:25.739Z,855.00
2023-04-27T13:11:25.709Z,1625.63
2023-04-27T13:12:25.694Z,967.50
2023-04-27T13:13:25.699Z,2165.63
2023-04-27T13:14:25.692Z,2227.50
2023-04-27T13:15:25.668Z,2902.50
2023-04-27T13:16:25.952Z,3037.50
2023-04-27T13:17:25.661Z,2638.13
2023-04-27T13:18:25.649Z,2289.38
2023-04-27T13:19:25.617Z,2081.25
2023-04-27T13:20:25.618Z,2711.25
2023-04-27T13:21:25.594Z,1490.63
2023-04-27T13:22:25.588Z,1344.38
2023-04-27T13:23:25.578Z,1451.25
2023-04-27T13:24:25.565Z,1181.25
2023-04-27T13:25:25.562Z,1935.00
2023-04-27T13:26:25.566Z,2986.88
2023-04-27T13:27:25.548Z,1411.88
2023-04-27T13:28:25.536Z,1271.25
2023-04-27T13:29:25.516Z,1518.75
2023-04-27T13:30:25.552Z,1901.25
2023-04-27T13:31:25.527Z,1569.38
2023-04-27T13:32:25.545Z,1344.38
2023-04-27T13:33:25.519Z,1479.38
2023-04-27T13:34:25.495Z,1591.88
2023-04-27T13:35:25.486Z,2064.38
2023-04-27T13:36:25.491Z,2401.88
2023-04-27T13:37:25.471Z,1963.13
2023-04-27T13:38:25.449Z,1423.13
2023-04-27T13:39:25.437Z,2598.75
2023-04-27T13:40:25.469Z,1974.38
2023-04-27T13:41:25.432Z,1546.88
2023-04-27T13:42:25.411Z,2565.00
2023-04-27T13:43:25.416Z,1738.13
2023-04-27T13:44:25.431Z,3245.63
2023-04-27T13:45:25.445Z,3577.50
2023-04-27T13:46:25.552Z,3026.25
2023-04-27T13:47:25.444Z,3521.25
2023-04-27T13:48:25.392Z,3487.50
2023-04-27T13:49:25.357Z,3465.00
2023-04-27T13:50:25.393Z,3420.00
2023-04-27T13:51:25.382Z,3054.38
2023-04-27T13:52:25.436Z,2722.50
2023-04-27T13:53:25.346Z,2632.50
2023-04-27T13:54:25.344Z,2565.00
2023-04-27T13:55:25.326Z,2486.25
2023-04-27T13:56:25.363Z,2491.88
2023-04-27T13:57:25.320Z,2396.25
2023-04-27T13:58:26.274Z,2086.88
2023-04-27T13:59:25.329Z,2081.25
2023-04-27T14:00:25.302Z,2154.38
2023-04-27T14:01:25.399Z,2233.13
2023-04-27T14:02:25.503Z,2210.63
2023-04-27T14:03:25.478Z,2137.50
2023-04-27T14:04:25.405Z,2148.75
2023-04-27T14:05:25.278Z,2131.88
2023-04-27T14:06:25.297Z,2165.63
2023-04-27T14:07:25.271Z,2131.88
2023-04-27T14:08:25.250Z,2137.50
2023-04-27T14:09:25.243Z,2171.25
2023-04-27T14:10:25.240Z,2255.63
2023-04-27T14:11:25.255Z,2216.25
2023-04-27T14:12:25.227Z,2373.75
2023-04-27T14:13:25.214Z,2317.50
2023-04-27T14:14:25.255Z,2295.00
2023-04-27T14:15:25.206Z,2587.50
2023-04-27T14:16:25.265Z,2525.63
2023-04-27T14:17:25.214Z,2486.25
2023-04-27T14:18:31.959Z,2441.25
2023-04-27T14:19:25.189Z,2750.63
2023-04-27T14:20:25.189Z,2874.38
2023-04-27T14:21:25.200Z,2683.13
2023-04-27T14:22:25.174Z,2750.63
2023-04-27T14:23:25.182Z,2795.63
2023-04-27T14:24:25.169Z,2728.13
2023-04-27T14:25:25.189Z,2902.50
2023-04-27T14:26:25.191Z,2761.88
2023-04-27T14:27:25.162Z,2486.25
2023-04-27T14:28:25.163Z,2621.25
2023-04-27T14:29:25.139Z,2745.00
2023-04-27T14:30:25.132Z,2565.00
2023-04-27T14:31:25.196Z,2739.38
2023-04-27T14:32:25.198Z,2728.13
2023-04-27T14:33:25.147Z,2694.38
2023-04-27T14:34:25.110Z,2767.50
2023-04-27T14:35:25.102Z,2767.50
2023-04-27T14:36:25.137Z,2705.63
2023-04-27T14:37:25.090Z,2638.13
2023-04-27T14:38:25.087Z,2581.88
2023-04-27T14:39:25.085Z,2463.75
2023-04-27T14:40:25.108Z,2345.63
2023-04-27T14:41:25.102Z,2266.88
2023-04-27T14:42:25.077Z,2075.63
2023-04-27T14:43:25.069Z,1912.50
2023-04-27T14:44:25.085Z,2036.25
2023-04-27T14:45:27.432Z,2013.75
2023-04-27T14:46:25.180Z,1974.38
2023-04-27T14:47:25.171Z,1884.38
2023-04-27T14:48:25.065Z,1681.88
2023-04-27T14:49:25.057Z,1524.38
2023-04-27T14:50:25.036Z,1558.13
2023-04-27T14:51:25.056Z,1760.63
2023-04-27T14:52:25.061Z,1738.13
2023-04-27T14:53:25.032Z,1777.50
2023-04-27T14:54:25.011Z,1878.75
2023-04-27T14:55:25.019Z,1350.00
2023-04-27T14:56:25.024Z,1642.50
2023-04-27T14:57:25.005Z,1715.63
2023-04-27T14:58:24.988Z,1563.75
2023-04-27T14:59:24.974Z,1366.88
2023-04-27T15:00:24.972Z,1563.75
2023-04-27T15:01:25.024Z,1440.00
2023-04-27T15:02:25.036Z,1400.63
2023-04-27T15:03:25.074Z,1766.25
2023-04-27T15:04:25.044Z,1625.63
2023-04-27T15:05:24.937Z,2075.63
2023-04-27T15:06:24.934Z,2081.25
2023-04-27T15:07:24.932Z,1974.38
2023-04-27T15:08:24.923Z,1468.13
2023-04-27T15:09:24.917Z,1260.00
2023-04-27T15:10:24.907Z,1721.25
2023-04-27T15:11:24.917Z,2193.75
2023-04-27T15:12:24.906Z,2266.88
2023-04-27T15:13:24.901Z,1878.75
2023-04-27T15:14:24.907Z,2295.00
2023-04-27T15:15:24.869Z,2244.38
2023-04-27T15:16:24.929Z,2463.75
2023-04-27T15:17:24.885Z,2430.00
2023-04-27T15:18:24.854Z,2373.75
2023-04-27T15:19:24.858Z,2266.88
2023-04-27T15:20:24.839Z,2131.88
2023-04-27T15:21:24.829Z,2086.88
2023-04-27T15:22:24.844Z,1906.88
2023-04-27T15:23:24.837Z,1800.00
2023-04-27T15:24:24.835Z,1665.00
2023-04-27T15:25:24.824Z,1552.50
2023-04-27T15:26:24.807Z,1636.88
2023-04-27T15:27:24.819Z,1783.13
2023-04-27T15:28:24.795Z,1822.50
2023-04-27T15:29:24.779Z,1895.63
2023-04-27T15:30:24.798Z,1895.63
2023-04-27T15:31:24.900Z,1755.00
2023-04-27T15:32:24.786Z,1726.88
2023-04-27T15:33:24.790Z,1816.88
2023-04-27T15:34:24.771Z,1833.75
2023-04-27T15:35:24.766Z,1828.13
2023-04-27T15:36:24.741Z,1580.63
2023-04-27T15:37:24.761Z,1462.50
2023-04-27T15:38:24.750Z,1456.88
2023-04-27T15:39:24.750Z,1591.88
2023-04-27T15:40:24.745Z,1648.13
2023-04-27T15:41:24.728Z,1794.38
2023-04-27T15:42:24.718Z,1901.25
2023-04-27T15:43:24.733Z,2030.63
2023-04-27T15:44:24.724Z,2086.88
2023-04-27T15:45:24.713Z,2064.38
2023-04-27T15:46:24.702Z,2058.75
2023-04-27T15:47:24.701Z,2019.38
2023-04-27T15:48:24.689Z,1890.00
2023-04-27T15:49:24.694Z,1749.38
2023-04-27T15:50:24.680Z,1558.13
2023-04-27T15:51:24.664Z,1417.50
2023-04-27T15:52:24.679Z,1282.50
2023-04-27T15:53:24.648Z,1063.13
2023-04-27T15:54:24.655Z,973.13
2023-04-27T15:55:24.634Z,911.25
2023-04-27T15:56:24.646Z,1046.25
2023-04-27T15:57:24.663Z,1006.88
2023-04-27T15:58:24.635Z,1051.88
2023-04-27T15:59:24.614Z,1080.00
2023-04-27T16:00:24.601Z,1215.00
2023-04-27T16:01:24.634Z,1158.75
2023-04-27T16:02:24.733Z,1141.88
2023-04-27T16:03:24.623Z,1119.38
2023-04-27T16:04:24.745Z,1119.38
2023-04-27T16:05:24.577Z,1040.63
2023-04-27T16:06:24.561Z,967.50
2023-04-27T16:07:24.594Z,973.13
2023-04-27T16:08:24.547Z,995.63
2023-04-27T16:09:24.583Z,939.38
2023-04-27T16:10:24.529Z,911.25
2023-04-27T16:11:24.758Z,916.88
2023-04-27T16:12:24.547Z,860.63
2023-04-27T16:13:24.524Z,1035.00
2023-04-27T16:14:24.504Z,973.13
2023-04-27T16:15:24.525Z,967.50
2023-04-27T16:16:24.555Z,928.13
2023-04-27T16:17:24.558Z,933.75
2023-04-27T16:18:24.472Z,973.13
2023-04-27T16:19:24.492Z,916.88
2023-04-27T16:21:32.140Z,888.75
2023-04-27T16:22:32.147Z,911.25
2023-04-27T16:23:32.121Z,871.88
